sensor_id;sensor_type;location;lat;lon;timestamp;pressure;altitude;pressure_sealevel;temperature;humidity
6851;BME280;3464;42.728;23.296;2024-01-16T00:00:17;93739.62;;;15.30;39.06
6851;BME280;3464;42.728;23.296;2024-01-16T00:02:44;93743.20;;;13.72;40.56
6851;BME280;3464;42.728;23.296;2024-01-16T00:05:12;93755.77;;;14.35;40.41
6851;BME280;3464;42.728;23.296;2024-01-16T00:07:39;93768.81;;;15.29;39.01
6851;BME280;3464;42.728;23.296;2024-01-16T00:10:07;93765.47;;;15.02;39.37
6851;BME280;3464;42.728;23.296;2024-01-16T00:12:32;93773.48;;;14.76;39.82
6851;BME280;3464;42.728;23.296;2024-01-16T00:14:59;93760.74;;;15.43;38.85
6851;BME280;3464;42.728;23.296;2024-01-16T00:17:26;93753.72;;;15.13;39.33
6851;BME280;3464;42.728;23.296;2024-01-16T00:19:52;93770.81;;;14.94;40.29
6851;BME280;3464;42.728;23.296;2024-01-16T00:22:19;93770.28;;;15.73;39.05
6851;BME280;3464;42.728;23.296;2024-01-16T00:24:45;93769.87;;;15.72;39.02
6851;BME280;3464;42.728;23.296;2024-01-16T00:27:12;93778.59;;;15.77;38.94
6851;BME280;3464;42.728;23.296;2024-01-16T00:29:39;93783.57;;;14.78;40.93
6851;BME280;3464;42.728;23.296;2024-01-16T00:32:06;93778.41;;;15.07;40.75
6851;BME280;3464;42.728;23.296;2024-01-16T00:34:33;93792.34;;;14.66;41.55
6851;BME280;3464;42.728;23.296;2024-01-16T00:37:00;93790.75;;;14.78;41.86
6851;BME280;3464;42.728;23.296;2024-01-16T00:39:26;93795.68;;;15.08;41.71
6851;BME280;3464;42.728;23.296;2024-01-16T00:41:53;93780.75;;;15.13;41.75
6851;BME280;3464;42.728;23.296;2024-01-16T00:44:19;93782.06;;;14.58;42.74
6851;BME280;3464;42.728;23.296;2024-01-16T00:46:46;93776.67;;;14.82;42.52
6851;BME280;3464;42.728;23.296;2024-01-16T00:49:12;93790.10;;;14.98;42.65
6851;BME280;3464;42.728;23.296;2024-01-16T00:51:39;93777.52;;;14.69;43.19
6851;BME280;3464;42.728;23.296;2024-01-16T00:54:06;93787.14;;;14.99;42.90
6851;BME280;3464;42.728;23.296;2024-01-16T00:56:33;93766.66;;;15.43;42.09
6851;BME280;3464;42.728;23.296;2024-01-16T00:58:59;93790.64;;;13.32;46.30
6851;BME280;3464;42.728;23.296;2024-01-16T01:01:26;93797.51;;;14.05;45.96
6851;BME280;3464;42.728;23.296;2024-01-16T01:03:52;93805.06;;;15.06;43.80
6851;BME280;3464;42.728;23.296;2024-01-16T01:06:19;93809.80;;;15.16;43.49
6851;BME280;3464;42.728;23.296;2024-01-16T01:08:45;93818.69;;;15.02;43.70
6851;BME280;3464;42.728;23.296;2024-01-16T01:11:12;93802.02;;;14.95;43.80
6851;BME280;3464;42.728;23.296;2024-01-16T01:13:38;93792.25;;;14.83;43.87
6851;BME280;3464;42.728;23.296;2024-01-16T01:16:05;93795.54;;;15.00;44.01
6851;BME280;3464;42.728;23.296;2024-01-16T01:18:32;93784.03;;;15.28;43.41
6851;BME280;3464;42.728;23.296;2024-01-16T01:20:58;93778.96;;;15.42;42.83
6851;BME280;3464;42.728;23.296;2024-01-16T01:23:25;93774.72;;;15.29;43.30
6851;BME280;3464;42.728;23.296;2024-01-16T01:25:51;93771.77;;;14.90;43.87
6851;BME280;3464;42.728;23.296;2024-01-16T01:28:18;93774.58;;;15.47;43.01
6851;BME280;3464;42.728;23.296;2024-01-16T01:30:44;93777.88;;;15.61;42.70
6851;BME280;3464;42.728;23.296;2024-01-16T01:33:11;93774.61;;;15.58;42.63
6851;BME280;3464;42.728;23.296;2024-01-16T01:35:37;93784.23;;;15.73;42.36
6851;BME280;3464;42.728;23.296;2024-01-16T01:38:04;93779.02;;;15.76;42.41
6851;BME280;3464;42.728;23.296;2024-01-16T01:40:31;93784.33;;;15.57;42.36
6851;BME280;3464;42.728;23.296;2024-01-16T01:43:16;93795.13;;;15.39;42.44
6851;BME280;3464;42.728;23.296;2024-01-16T01:45:25;93798.13;;;15.11;42.97
6851;BME280;3464;42.728;23.296;2024-01-16T01:47:51;93793.55;;;15.35;42.71
6851;BME280;3464;42.728;23.296;2024-01-16T01:50:18;93803.73;;;15.47;42.52
6851;BME280;3464;42.728;23.296;2024-01-16T01:52:44;93786.52;;;15.17;42.74
6851;BME280;3464;42.728;23.296;2024-01-16T01:55:11;93791.19;;;14.50;45.16
6851;BME280;3464;42.728;23.296;2024-01-16T01:57:38;93793.98;;;15.09;44.50
6851;BME280;3464;42.728;23.296;2024-01-16T02:00:05;93785.91;;;15.22;43.93
6851;BME280;3464;42.728;23.296;2024-01-16T02:02:32;93795.05;;;15.28;43.83
6851;BME280;3464;42.728;23.296;2024-01-16T02:04:58;93799.25;;;15.42;43.20
6851;BME280;3464;42.728;23.296;2024-01-16T02:07:25;93793.36;;;15.54;43.18
6851;BME280;3464;42.728;23.296;2024-01-16T02:09:51;93795.17;;;15.75;42.70
6851;BME280;3464;42.728;23.296;2024-01-16T02:12:18;93796.63;;;15.44;43.15
6851;BME280;3464;42.728;23.296;2024-01-16T02:14:44;93800.83;;;15.70;42.83
6851;BME280;3464;42.728;23.296;2024-01-16T02:17:11;93797.84;;;15.59;42.72
6851;BME280;3464;42.728;23.296;2024-01-16T02:19:37;93814.98;;;15.64;42.63
6851;BME280;3464;42.728;23.296;2024-01-16T02:22:04;93803.85;;;15.80;42.52
6851;BME280;3464;42.728;23.296;2024-01-16T02:24:30;93819.48;;;15.43;42.95
6851;BME280;3464;42.728;23.296;2024-01-16T02:26:57;93821.91;;;15.95;42.28
6851;BME280;3464;42.728;23.296;2024-01-16T02:29:23;93838.47;;;15.82;42.54
6851;BME280;3464;42.728;23.296;2024-01-16T02:31:50;93843.15;;;16.05;42.26
6851;BME280;3464;42.728;23.296;2024-01-16T02:34:16;93845.38;;;16.02;42.41
6851;BME280;3464;42.728;23.296;2024-01-16T02:36:43;93838.39;;;16.20;42.01
6851;BME280;3464;42.728;23.296;2024-01-16T02:39:09;93856.16;;;15.95;42.28
6851;BME280;3464;42.728;23.296;2024-01-16T02:41:36;93862.75;;;15.24;43.90
6851;BME280;3464;42.728;23.296;2024-01-16T02:44:03;93856.00;;;16.01;43.10
6851;BME280;3464;42.728;23.296;2024-01-16T02:46:29;93877.96;;;15.24;44.12
6851;BME280;3464;42.728;23.296;2024-01-16T02:48:56;93880.91;;;15.12;44.67
6851;BME280;3464;42.728;23.296;2024-01-16T02:51:24;93885.34;;;14.90;45.36
6851;BME280;3464;42.728;23.296;2024-01-16T02:53:50;93896.22;;;15.35;44.97
6851;BME280;3464;42.728;23.296;2024-01-16T02:56:17;93905.05;;;15.35;45.62
6851;BME280;3464;42.728;23.296;2024-01-16T02:58:44;93906.14;;;15.69;44.86
6851;BME280;3464;42.728;23.296;2024-01-16T03:01:11;93910.44;;;15.91;44.43
6851;BME280;3464;42.728;23.296;2024-01-16T03:03:37;93912.95;;;15.79;45.14
6851;BME280;3464;42.728;23.296;2024-01-16T03:06:04;93904.48;;;14.57;48.44
6851;BME280;3464;42.728;23.296;2024-01-16T03:08:33;93915.41;;;14.59;49.53
6851;BME280;3464;42.728;23.296;2024-01-16T03:10:59;93932.52;;;14.18;51.20
6851;BME280;3464;42.728;23.296;2024-01-16T03:13:26;93952.59;;;14.26;51.36
6851;BME280;3464;42.728;23.296;2024-01-16T03:15:52;93954.75;;;14.07;51.67
6851;BME280;3464;42.728;23.296;2024-01-16T03:18:19;93956.44;;;14.25;51.19
6851;BME280;3464;42.728;23.296;2024-01-16T03:20:47;93963.63;;;14.40;50.83
6851;BME280;3464;42.728;23.296;2024-01-16T03:23:13;93973.84;;;14.19;51.08
6851;BME280;3464;42.728;23.296;2024-01-16T03:25:40;93963.77;;;14.01;50.86
6851;BME280;3464;42.728;23.296;2024-01-16T03:28:06;93964.84;;;14.08;50.48
6851;BME280;3464;42.728;23.296;2024-01-16T03:30:34;93975.02;;;14.40;49.60
6851;BME280;3464;42.728;23.296;2024-01-16T03:33:00;93998.88;;;13.96;50.30
6851;BME280;3464;42.728;23.296;2024-01-16T03:35:27;94000.80;;;14.38;49.75
6851;BME280;3464;42.728;23.296;2024-01-16T03:37:53;94005.58;;;13.98;50.06
6851;BME280;3464;42.728;23.296;2024-01-16T03:40:20;94012.25;;;14.01;49.99
6851;BME280;3464;42.728;23.296;2024-01-16T03:42:46;94023.23;;;14.18;49.54
6851;BME280;3464;42.728;23.296;2024-01-16T03:45:13;94028.34;;;13.81;49.58
6851;BME280;3464;42.728;23.296;2024-01-16T03:47:39;94033.72;;;13.85;49.39
6851;BME280;3464;42.728;23.296;2024-01-16T03:50:07;94049.47;;;13.22;50.11
6851;BME280;3464;42.728;23.296;2024-01-16T03:52:34;94047.05;;;13.36;49.81
6851;BME280;3464;42.728;23.296;2024-01-16T03:55:05;94041.11;;;14.29;47.91
6851;BME280;3464;42.728;23.296;2024-01-16T03:57:32;94056.55;;;13.45;48.99
6851;BME280;3464;42.728;23.296;2024-01-16T03:59:58;94054.13;;;13.20;49.56
6851;BME280;3464;42.728;23.296;2024-01-16T04:02:25;94062.16;;;12.97;49.62
6851;BME280;3464;42.728;23.296;2024-01-16T04:04:52;94072.36;;;13.14;49.09
6851;BME280;3464;42.728;23.296;2024-01-16T04:07:18;94085.59;;;13.27;48.59
6851;BME280;3464;42.728;23.296;2024-01-16T04:09:46;94088.91;;;12.40;50.63
6851;BME280;3464;42.728;23.296;2024-01-16T04:12:12;94106.17;;;12.62;50.34
6851;BME280;3464;42.728;23.296;2024-01-16T04:14:39;94111.95;;;12.91;49.52
6851;BME280;3464;42.728;23.296;2024-01-16T04:17:05;94113.34;;;12.37;50.16
6851;BME280;3464;42.728;23.296;2024-01-16T04:19:32;94112.84;;;13.32;48.82
6851;BME280;3464;42.728;23.296;2024-01-16T04:21:59;94121.08;;;12.74;49.22
6851;BME280;3464;42.728;23.296;2024-01-16T04:24:26;94121.48;;;13.42;48.11
6851;BME280;3464;42.728;23.296;2024-01-16T04:26:53;94112.73;;;12.93;48.75
6851;BME280;3464;42.728;23.296;2024-01-16T04:29:20;94119.73;;;13.24;47.67
6851;BME280;3464;42.728;23.296;2024-01-16T04:31:46;94131.31;;;12.92;47.94
6851;BME280;3464;42.728;23.296;2024-01-16T04:34:13;94135.04;;;12.93;47.76
6851;BME280;3464;42.728;23.296;2024-01-16T04:36:40;94136.89;;;12.62;47.74
6851;BME280;3464;42.728;23.296;2024-01-16T04:39:06;94117.78;;;12.94;47.31
6851;BME280;3464;42.728;23.296;2024-01-16T04:41:33;94146.52;;;12.39;48.07
6851;BME280;3464;42.728;23.296;2024-01-16T04:43:59;94169.23;;;12.65;47.90
6851;BME280;3464;42.728;23.296;2024-01-16T04:46:26;94176.98;;;12.00;48.46
6851;BME280;3464;42.728;23.296;2024-01-16T04:48:52;94198.83;;;12.56;48.03
6851;BME280;3464;42.728;23.296;2024-01-16T04:51:19;94203.34;;;13.13;46.82
6851;BME280;3464;42.728;23.296;2024-01-16T04:53:46;94214.73;;;13.34;46.68
6851;BME280;3464;42.728;23.296;2024-01-16T04:56:12;94207.85;;;12.44;47.45
6851;BME280;3464;42.728;23.296;2024-01-16T04:58:39;94221.52;;;12.31;48.03
6851;BME280;3464;42.728;23.296;2024-01-16T05:01:05;94233.05;;;12.73;47.22
6851;BME280;3464;42.728;23.296;2024-01-16T05:03:32;94234.86;;;12.38;47.69
6851;BME280;3464;42.728;23.296;2024-01-16T05:05:58;94243.38;;;12.59;47.21
6851;BME280;3464;42.728;23.296;2024-01-16T05:08:25;94248.97;;;12.52;47.37
6851;BME280;3464;42.728;23.296;2024-01-16T05:10:52;94249.45;;;12.47;47.06
6851;BME280;3464;42.728;23.296;2024-01-16T05:13:18;94258.83;;;13.18;45.88
6851;BME280;3464;42.728;23.296;2024-01-16T05:15:45;94263.37;;;13.00;46.43
6851;BME280;3464;42.728;23.296;2024-01-16T05:18:11;94272.62;;;12.98;46.19
6851;BME280;3464;42.728;23.296;2024-01-16T05:20:38;94281.57;;;12.37;46.71
6851;BME280;3464;42.728;23.296;2024-01-16T05:23:04;94288.22;;;11.78;48.24
6851;BME280;3464;42.728;23.296;2024-01-16T05:25:31;94297.23;;;11.62;48.65
6851;BME280;3464;42.728;23.296;2024-01-16T05:27:57;94298.98;;;12.82;46.92
6851;BME280;3464;42.728;23.296;2024-01-16T05:30:24;94299.81;;;12.25;46.94
6851;BME280;3464;42.728;23.296;2024-01-16T05:32:50;94301.58;;;13.30;45.79
6851;BME280;3464;42.728;23.296;2024-01-16T05:35:17;94310.55;;;12.70;46.76
6851;BME280;3464;42.728;23.296;2024-01-16T05:37:43;94313.81;;;12.47;46.63
6851;BME280;3464;42.728;23.296;2024-01-16T05:40:10;94326.12;;;12.40;47.36
6851;BME280;3464;42.728;23.296;2024-01-16T05:42:38;94336.97;;;12.75;46.22
6851;BME280;3464;42.728;23.296;2024-01-16T05:45:05;94337.69;;;12.55;46.56
6851;BME280;3464;42.728;23.296;2024-01-16T05:47:31;94353.59;;;12.60;46.24
6851;BME280;3464;42.728;23.296;2024-01-16T05:49:58;94369.91;;;12.95;45.92
6851;BME280;3464;42.728;23.296;2024-01-16T05:52:24;94370.06;;;13.66;44.23
6851;BME280;3464;42.728;23.296;2024-01-16T05:54:51;94379.89;;;13.59;44.08
6851;BME280;3464;42.728;23.296;2024-01-16T05:57:17;94374.69;;;13.89;43.57
6851;BME280;3464;42.728;23.296;2024-01-16T05:59:44;94374.94;;;13.77;43.59
6851;BME280;3464;42.728;23.296;2024-01-16T06:02:10;94393.61;;;12.88;44.45
6851;BME280;3464;42.728;23.296;2024-01-16T06:04:37;94392.47;;;12.11;46.02
6851;BME280;3464;42.728;23.296;2024-01-16T06:07:04;94403.70;;;12.57;45.45
6851;BME280;3464;42.728;23.296;2024-01-16T06:09:30;94406.08;;;11.98;46.04
6851;BME280;3464;42.728;23.296;2024-01-16T06:11:58;94417.00;;;12.37;45.91
6851;BME280;3464;42.728;23.296;2024-01-16T06:14:24;94425.35;;;13.07;44.65
6851;BME280;3464;42.728;23.296;2024-01-16T06:16:51;94443.55;;;12.68;44.88
6851;BME280;3464;42.728;23.296;2024-01-16T06:19:17;94450.64;;;13.06;44.55
6851;BME280;3464;42.728;23.296;2024-01-16T06:21:44;94465.09;;;12.94;44.07
6851;BME280;3464;42.728;23.296;2024-01-16T06:24:11;94464.78;;;12.86;44.12
6851;BME280;3464;42.728;23.296;2024-01-16T06:26:37;94466.17;;;13.37;43.28
6851;BME280;3464;42.728;23.296;2024-01-16T06:29:04;94474.02;;;12.86;44.22
6851;BME280;3464;42.728;23.296;2024-01-16T06:31:30;94482.71;;;12.82;44.07
6851;BME280;3464;42.728;23.296;2024-01-16T06:33:57;94478.18;;;13.23;43.57
6851;BME280;3464;42.728;23.296;2024-01-16T06:36:23;94493.22;;;13.32;42.98
6851;BME280;3464;42.728;23.296;2024-01-16T06:38:50;94486.04;;;13.61;42.82
6851;BME280;3464;42.728;23.296;2024-01-16T06:41:17;94489.98;;;13.24;43.18
6851;BME280;3464;42.728;23.296;2024-01-16T06:43:44;94500.16;;;13.19;43.09
6851;BME280;3464;42.728;23.296;2024-01-16T06:46:11;94505.11;;;13.54;42.52
6851;BME280;3464;42.728;23.296;2024-01-16T06:48:43;94514.61;;;13.68;42.29
6851;BME280;3464;42.728;23.296;2024-01-16T06:51:12;94517.41;;;13.21;42.68
6851;BME280;3464;42.728;23.296;2024-01-16T06:53:40;94520.31;;;13.53;42.50
6851;BME280;3464;42.728;23.296;2024-01-16T06:56:07;94505.45;;;12.97;43.04
6851;BME280;3464;42.728;23.296;2024-01-16T06:58:34;94541.81;;;12.86;43.41
6851;BME280;3464;42.728;23.296;2024-01-16T07:01:02;94539.30;;;12.83;43.52
6851;BME280;3464;42.728;23.296;2024-01-16T07:03:30;94536.31;;;12.50;44.17
6851;BME280;3464;42.728;23.296;2024-01-16T07:05:57;94543.28;;;12.68;43.83
6851;BME280;3464;42.728;23.296;2024-01-16T07:08:24;94557.55;;;11.83;44.76
6851;BME280;3464;42.728;23.296;2024-01-16T07:10:50;94564.17;;;12.81;43.59
6851;BME280;3464;42.728;23.296;2024-01-16T07:13:20;94575.80;;;12.56;43.86
6851;BME280;3464;42.728;23.296;2024-01-16T07:15:46;94593.16;;;11.96;44.81
6851;BME280;3464;42.728;23.296;2024-01-16T07:18:13;94589.73;;;12.52;44.25
6851;BME280;3464;42.728;23.296;2024-01-16T07:20:40;94596.84;;;12.99;43.49
6851;BME280;3464;42.728;23.296;2024-01-16T07:23:06;94596.43;;;12.93;43.26
6851;BME280;3464;42.728;23.296;2024-01-16T07:25:34;94613.60;;;13.06;43.04
6851;BME280;3464;42.728;23.296;2024-01-16T07:28:00;94623.86;;;13.30;43.02
6851;BME280;3464;42.728;23.296;2024-01-16T07:30:33;94602.29;;;12.96;43.11
6851;BME280;3464;42.728;23.296;2024-01-16T07:33:04;94613.02;;;13.81;41.86
6851;BME280;3464;42.728;23.296;2024-01-16T07:35:31;94630.08;;;13.68;42.08
6851;BME280;3464;42.728;23.296;2024-01-16T07:37:58;94639.08;;;12.82;43.49
6851;BME280;3464;42.728;23.296;2024-01-16T07:43:27;94651.23;;;14.24;41.39
6851;BME280;3464;42.728;23.296;2024-01-16T07:45:58;94652.72;;;13.77;41.97
6851;BME280;3464;42.728;23.296;2024-01-16T07:48:25;94659.32;;;13.87;41.76
6851;BME280;3464;42.728;23.296;2024-01-16T07:50:52;94670.02;;;13.44;41.95
6851;BME280;3464;42.728;23.296;2024-01-16T07:53:19;94673.98;;;13.29;42.75
6851;BME280;3464;42.728;23.296;2024-01-16T07:55:46;94686.60;;;13.31;42.33
6851;BME280;3464;42.728;23.296;2024-01-16T07:58:13;94684.76;;;13.43;42.36
6851;BME280;3464;42.728;23.296;2024-01-16T08:00:41;94682.94;;;13.56;42.02
6851;BME280;3464;42.728;23.296;2024-01-16T08:03:07;94702.05;;;12.51;43.58
6851;BME280;3464;42.728;23.296;2024-01-16T08:05:37;94703.77;;;12.48;44.09
6851;BME280;3464;42.728;23.296;2024-01-16T08:08:09;94703.32;;;12.98;43.28
6851;BME280;3464;42.728;23.296;2024-01-16T08:10:37;94704.02;;;13.16;42.86
6851;BME280;3464;42.728;23.296;2024-01-16T08:13:04;94709.11;;;14.18;41.78
6851;BME280;3464;42.728;23.296;2024-01-16T08:15:32;94708.63;;;14.51;40.98
6851;BME280;3464;42.728;23.296;2024-01-16T08:18:00;94722.39;;;13.32;42.17
6851;BME280;3464;42.728;23.296;2024-01-16T08:20:27;94735.03;;;13.32;42.68
6851;BME280;3464;42.728;23.296;2024-01-16T08:22:53;94736.52;;;13.84;41.91
6851;BME280;3464;42.728;23.296;2024-01-16T08:25:21;94751.89;;;14.36;41.19
6851;BME280;3464;42.728;23.296;2024-01-16T08:27:48;94746.30;;;14.11;41.49
6851;BME280;3464;42.728;23.296;2024-01-16T08:30:15;94750.68;;;14.61;40.14
6851;BME280;3464;42.728;23.296;2024-01-16T08:32:41;94751.48;;;14.03;40.53
6851;BME280;3464;42.728;23.296;2024-01-16T08:35:09;94754.84;;;14.66;39.54
6851;BME280;3464;42.728;23.296;2024-01-16T08:37:37;94760.55;;;14.19;39.99
6851;BME280;3464;42.728;23.296;2024-01-16T08:40:05;94774.63;;;13.71;40.97
6851;BME280;3464;42.728;23.296;2024-01-16T08:42:32;94781.02;;;13.65;41.09
6851;BME280;3464;42.728;23.296;2024-01-16T08:44:59;94792.15;;;12.42;42.06
6851;BME280;3464;42.728;23.296;2024-01-16T08:47:25;94794.22;;;13.08;41.37
6851;BME280;3464;42.728;23.296;2024-01-16T08:49:52;94793.73;;;12.60;42.07
6851;BME280;3464;42.728;23.296;2024-01-16T08:52:19;94796.45;;;13.43;40.94
6851;BME280;3464;42.728;23.296;2024-01-16T08:54:45;94795.50;;;12.46;42.00
6851;BME280;3464;42.728;23.296;2024-01-16T08:57:12;94805.47;;;12.66;41.62
6851;BME280;3464;42.728;23.296;2024-01-16T08:59:40;94808.27;;;12.17;42.60
6851;BME280;3464;42.728;23.296;2024-01-16T09:02:05;94809.14;;;12.17;42.96
6851;BME280;3464;42.728;23.296;2024-01-16T09:04:32;94799.19;;;13.21;41.72
6851;BME280;3464;42.728;23.296;2024-01-16T09:06:58;94787.17;;;14.16;40.32
6851;BME280;3464;42.728;23.296;2024-01-16T09:09:25;94803.33;;;13.28;41.04
6851;BME280;3464;42.728;23.296;2024-01-16T09:11:51;94810.13;;;13.20;40.90
6851;BME280;3464;42.728;23.296;2024-01-16T09:14:19;94815.55;;;12.71;41.83
6851;BME280;3464;42.728;23.296;2024-01-16T09:16:46;94810.55;;;12.64;41.72
6851;BME280;3464;42.728;23.296;2024-01-16T09:19:13;94815.72;;;12.41;41.49
6851;BME280;3464;42.728;23.296;2024-01-16T09:21:40;94810.52;;;12.64;41.70
6851;BME280;3464;42.728;23.296;2024-01-16T09:24:06;94818.09;;;13.67;40.35
6851;BME280;3464;42.728;23.296;2024-01-16T09:26:33;94831.69;;;13.57;40.47
6851;BME280;3464;42.728;23.296;2024-01-16T09:28:59;94835.11;;;13.92;39.90
6851;BME280;3464;42.728;23.296;2024-01-16T09:31:26;94828.75;;;13.96;39.57
6851;BME280;3464;42.728;23.296;2024-01-16T09:33:52;94824.04;;;14.37;38.99
6851;BME280;3464;42.728;23.296;2024-01-16T09:36:19;94820.19;;;14.05;39.25
6851;BME280;3464;42.728;23.296;2024-01-16T09:38:46;94818.97;;;13.64;39.49
6851;BME280;3464;42.728;23.296;2024-01-16T09:41:14;94815.78;;;13.86;39.56
6851;BME280;3464;42.728;23.296;2024-01-16T09:43:42;94825.83;;;14.31;38.44
6851;BME280;3464;42.728;23.296;2024-01-16T09:46:09;94827.83;;;14.03;38.82
6851;BME280;3464;42.728;23.296;2024-01-16T09:48:35;94836.05;;;13.83;38.81
6851;BME280;3464;42.728;23.296;2024-01-16T09:51:02;94847.17;;;13.23;39.58
6851;BME280;3464;42.728;23.296;2024-01-16T09:53:30;94834.61;;;13.60;39.47
6851;BME280;3464;42.728;23.296;2024-01-16T09:55:57;94832.48;;;14.38;39.07
6851;BME280;3464;42.728;23.296;2024-01-16T09:58:26;94830.59;;;13.82;39.20
6851;BME280;3464;42.728;23.296;2024-01-16T10:00:53;94823.80;;;14.85;38.22
6851;BME280;3464;42.728;23.296;2024-01-16T10:03:21;94815.75;;;15.64;37.80
6851;BME280;3464;42.728;23.296;2024-01-16T10:05:48;94819.89;;;15.18;37.58
6851;BME280;3464;42.728;23.296;2024-01-16T10:08:15;94822.83;;;15.69;36.58
6851;BME280;3464;42.728;23.296;2024-01-16T10:10:47;94815.54;;;15.51;36.79
6851;BME280;3464;42.728;23.296;2024-01-16T10:13:14;94811.33;;;14.71;36.75
6851;BME280;3464;42.728;23.296;2024-01-16T10:15:42;94808.88;;;15.46;36.85
6851;BME280;3464;42.728;23.296;2024-01-16T10:18:26;94811.16;;;16.04;35.70
6851;BME280;3464;42.728;23.296;2024-01-16T10:23:46;94832.71;;;15.10;37.17
6851;BME280;3464;42.728;23.296;2024-01-16T10:26:25;94828.19;;;14.44;37.44
6851;BME280;3464;42.728;23.296;2024-01-16T10:28:52;94832.78;;;14.77;37.30
6851;BME280;3464;42.728;23.296;2024-01-16T10:31:18;94839.82;;;14.85;37.24
6851;BME280;3464;42.728;23.296;2024-01-16T10:33:46;94853.52;;;14.42;38.01
6851;BME280;3464;42.728;23.296;2024-01-16T10:36:14;94835.00;;;14.98;36.71
6851;BME280;3464;42.728;23.296;2024-01-16T10:38:40;94835.33;;;15.03;36.39
6851;BME280;3464;42.728;23.296;2024-01-16T10:41:09;94845.45;;;14.47;36.99
6851;BME280;3464;42.728;23.296;2024-01-16T10:43:35;94836.55;;;14.50;37.18
6851;BME280;3464;42.728;23.296;2024-01-16T10:46:09;94834.99;;;15.52;36.09
6851;BME280;3464;42.728;23.296;2024-01-16T10:48:42;94839.10;;;14.77;36.44
6851;BME280;3464;42.728;23.296;2024-01-16T10:51:10;94841.93;;;14.56;37.08
6851;BME280;3464;42.728;23.296;2024-01-16T10:53:36;94832.98;;;14.91;36.64
6851;BME280;3464;42.728;23.296;2024-01-16T10:56:03;94828.04;;;14.83;36.58
6851;BME280;3464;42.728;23.296;2024-01-16T10:58:30;94824.64;;;14.55;37.21
6851;BME280;3464;42.728;23.296;2024-01-16T11:00:57;94826.00;;;15.82;35.93
6851;BME280;3464;42.728;23.296;2024-01-16T11:03:28;94837.64;;;14.90;36.81
6851;BME280;3464;42.728;23.296;2024-01-16T11:05:52;94842.33;;;15.15;36.93
6851;BME280;3464;42.728;23.296;2024-01-16T11:08:19;94843.20;;;14.86;36.69
6851;BME280;3464;42.728;23.296;2024-01-16T11:10:45;94843.94;;;15.47;36.23
6851;BME280;3464;42.728;23.296;2024-01-16T11:13:20;94845.83;;;15.85;35.54
6851;BME280;3464;42.728;23.296;2024-01-16T11:15:46;94853.12;;;15.78;35.56
6851;BME280;3464;42.728;23.296;2024-01-16T11:18:16;94854.95;;;14.92;36.28
6851;BME280;3464;42.728;23.296;2024-01-16T11:20:43;94847.31;;;14.93;36.36
6851;BME280;3464;42.728;23.296;2024-01-16T11:23:10;94853.86;;;15.35;36.35
6851;BME280;3464;42.728;23.296;2024-01-16T11:25:37;94851.47;;;14.70;36.96
6851;BME280;3464;42.728;23.296;2024-01-16T11:28:09;94859.48;;;14.99;37.04
6851;BME280;3464;42.728;23.296;2024-01-16T11:30:35;94852.73;;;15.25;36.25
6851;BME280;3464;42.728;23.296;2024-01-16T11:33:02;94860.56;;;15.11;36.11
6851;BME280;3464;42.728;23.296;2024-01-16T11:35:32;94866.33;;;14.94;36.71
6851;BME280;3464;42.728;23.296;2024-01-16T11:38:04;94862.80;;;15.82;35.93
6851;BME280;3464;42.728;23.296;2024-01-16T11:40:32;94862.21;;;15.90;35.47
6851;BME280;3464;42.728;23.296;2024-01-16T11:42:58;94864.79;;;15.10;36.58
6851;BME280;3464;42.728;23.296;2024-01-16T11:45:49;94864.55;;;15.28;36.41
6851;BME280;3464;42.728;23.296;2024-01-16T11:48:17;94869.89;;;15.10;36.75
6851;BME280;3464;42.728;23.296;2024-01-16T11:50:44;94871.47;;;15.45;36.09
6851;BME280;3464;42.728;23.296;2024-01-16T11:53:43;94877.48;;;15.38;36.28
6851;BME280;3464;42.728;23.296;2024-01-16T11:56:06;94875.03;;;14.44;37.21
6851;BME280;3464;42.728;23.296;2024-01-16T11:58:45;94870.80;;;15.05;36.87
6851;BME280;3464;42.728;23.296;2024-01-16T12:01:09;94874.31;;;14.65;36.69
6851;BME280;3464;42.728;23.296;2024-01-16T12:03:35;94882.02;;;14.22;37.06
6851;BME280;3464;42.728;23.296;2024-01-16T12:06:02;94896.73;;;14.29;37.10
6851;BME280;3464;42.728;23.296;2024-01-16T12:08:31;94893.88;;;15.16;36.18
6851;BME280;3464;42.728;23.296;2024-01-16T12:10:57;94893.06;;;15.91;34.94
6851;BME280;3464;42.728;23.296;2024-01-16T12:13:24;94896.78;;;14.90;36.19
6851;BME280;3464;42.728;23.296;2024-01-16T12:16:05;94901.31;;;15.55;35.75
6851;BME280;3464;42.728;23.296;2024-01-16T12:18:32;94898.92;;;13.77;37.45
6851;BME280;3464;42.728;23.296;2024-01-16T12:21:07;94893.59;;;14.03;36.83
6851;BME280;3464;42.728;23.296;2024-01-16T12:23:28;94884.07;;;14.63;35.89
6851;BME280;3464;42.728;23.296;2024-01-16T12:25:54;94889.55;;;14.29;36.70
6851;BME280;3464;42.728;23.296;2024-01-16T12:28:23;94890.84;;;14.28;36.52
6851;BME280;3464;42.728;23.296;2024-01-16T12:30:50;94898.33;;;14.70;35.68
6851;BME280;3464;42.728;23.296;2024-01-16T12:33:21;94896.02;;;13.75;36.79
6851;BME280;3464;42.728;23.296;2024-01-16T12:36:00;94902.31;;;14.17;36.26
6851;BME280;3464;42.728;23.296;2024-01-16T12:38:20;94899.14;;;14.39;36.35
6851;BME280;3464;42.728;23.296;2024-01-16T12:40:49;94906.89;;;14.26;36.41
6851;BME280;3464;42.728;23.296;2024-01-16T12:43:17;94913.06;;;13.98;37.26
6851;BME280;3464;42.728;23.296;2024-01-16T12:45:44;94909.08;;;15.47;36.01
6851;BME280;3464;42.728;23.296;2024-01-16T12:48:11;94907.95;;;14.78;36.26
6851;BME280;3464;42.728;23.296;2024-01-16T12:50:37;94908.84;;;14.39;36.49
6851;BME280;3464;42.728;23.296;2024-01-16T12:53:08;94906.87;;;15.23;36.08
6851;BME280;3464;42.728;23.296;2024-01-16T12:55:34;94905.31;;;15.44;35.30
6851;BME280;3464;42.728;23.296;2024-01-16T12:58:18;94900.47;;;14.98;35.45
6851;BME280;3464;42.728;23.296;2024-01-16T13:00:47;94900.13;;;15.21;35.03
6851;BME280;3464;42.728;23.296;2024-01-16T13:03:16;94908.59;;;14.60;36.07
6851;BME280;3464;42.728;23.296;2024-01-16T13:05:43;94919.95;;;13.83;37.21
6851;BME280;3464;42.728;23.296;2024-01-16T13:11:12;94921.39;;;14.49;36.55
6851;BME280;3464;42.728;23.296;2024-01-16T13:16:21;94930.59;;;14.57;36.32
6851;BME280;3464;42.728;23.296;2024-01-16T13:18:47;94927.11;;;14.96;35.41
6851;BME280;3464;42.728;23.296;2024-01-16T13:24:31;94927.77;;;14.79;35.36